createdAt,value
2018-09-19T00:02:07.830Z,4.07
2018-09-19T00:04:37.067Z,5.07
2018-09-19T00:07:06.297Z,3.35
2018-09-19T00:09:35.527Z,5.17
2018-09-19T00:12:04.793Z,3.30
2018-09-19T00:14:33.977Z,4.57
2018-09-19T00:17:03.480Z,4.30
2018-09-19T00:19:32.690Z,7.35
2018-09-19T00:22:01.945Z,7.50
2018-09-19T00:24:31.325Z,5.17
2018-09-19T00:27:00.543Z,4.77
2018-09-19T00:29:29.753Z,5.58
2018-09-19T00:31:58.974Z,4.80
2018-09-19T00:34:28.235Z,5.17
2018-09-19T00:36:57.442Z,6.63
2018-09-19T00:39:26.681Z,4.03
2018-09-19T00:41:55.915Z,7.27
2018-09-19T00:44:25.183Z,8.60
2018-09-19T00:46:54.415Z,6.43
2018-09-19T00:49:23.639Z,8.20
2018-09-19T00:51:52.859Z,5.07
2018-09-19T00:54:22.085Z,6.57
2018-09-19T00:56:51.311Z,9.33
2018-09-19T00:59:20.574Z,6.72
2018-09-19T01:01:49.853Z,4.63
2018-09-19T01:04:19.081Z,5.50
2018-09-19T01:06:48.319Z,5.37
2018-09-19T01:09:17.561Z,6.28
2018-09-19T01:11:46.793Z,5.53
2018-09-19T01:14:16.004Z,6.53
2018-09-19T01:16:45.225Z,4.70
2018-09-19T01:19:14.470Z,4.90
2018-09-19T01:21:43.700Z,5.77
2018-09-19T01:24:12.943Z,6.90
2018-09-19T01:26:42.174Z,5.87
2018-09-19T01:29:11.397Z,6.30
2018-09-19T01:31:40.666Z,6.97
2018-09-19T01:34:09.967Z,5.10
2018-09-19T01:36:39.151Z,4.37
2018-09-19T01:39:08.493Z,4.90
2018-09-19T01:41:37.740Z,5.90
2018-09-19T01:44:06.984Z,6.28
2018-09-19T01:46:36.217Z,4.53
2018-09-19T01:49:05.485Z,5.17
2018-09-19T01:51:34.711Z,4.10
2018-09-19T01:54:03.954Z,8.30
2018-09-19T01:56:33.167Z,3.03
2018-09-19T01:59:02.793Z,3.22
2018-09-19T02:01:32.045Z,4.10
2018-09-19T02:04:01.266Z,4.50
2018-09-19T02:06:30.499Z,4.30
2018-09-19T02:08:59.737Z,5.53
2018-09-19T02:11:28.946Z,5.27
2018-09-19T02:13:58.200Z,6.23
2018-09-19T02:16:27.419Z,6.10
2018-09-19T02:18:56.635Z,5.55
2018-09-19T02:21:25.877Z,7.10
2018-09-19T02:23:55.091Z,5.70
2018-09-19T02:26:24.314Z,4.53
2018-09-19T02:28:53.540Z,4.33
2018-09-19T02:31:22.781Z,5.22
2018-09-19T02:33:52.013Z,4.97
2018-09-19T02:36:27.043Z,6.03
2018-09-19T02:38:57.455Z,8.20
2018-09-19T02:41:26.696Z,7.43
2018-09-19T02:43:56.031Z,8.23
2018-09-19T02:46:25.254Z,6.43
2018-09-19T02:48:54.485Z,4.80
2018-09-19T02:51:23.728Z,5.27
2018-09-19T02:53:52.943Z,4.00
2018-09-19T02:56:22.168Z,5.90
2018-09-19T02:58:51.381Z,6.80
2018-09-19T03:01:20.598Z,3.95
2018-09-19T03:03:49.818Z,4.70
2018-09-19T03:06:19.053Z,6.13
2018-09-19T03:08:48.283Z,5.63
2018-09-19T03:11:17.525Z,10.20
2018-09-19T03:13:46.762Z,5.10
2018-09-19T03:16:15.986Z,6.60
2018-09-19T03:18:45.215Z,5.47
2018-09-19T03:21:14.446Z,5.97
2018-09-19T03:23:43.687Z,7.37
2018-09-19T03:26:12.924Z,5.37
2018-09-19T03:28:42.183Z,5.10
2018-09-19T03:31:11.419Z,7.17
2018-09-19T03:33:40.636Z,9.67
2018-09-19T03:36:09.873Z,8.27
2018-09-19T03:38:39.088Z,5.63
2018-09-19T03:41:08.362Z,8.75
2018-09-19T03:43:37.591Z,8.68
2018-09-19T03:46:06.872Z,7.28
2018-09-19T03:48:36.090Z,7.23
2018-09-19T03:51:05.501Z,6.87
2018-09-19T03:53:34.744Z,11.97
2018-09-19T03:56:03.997Z,7.03
2018-09-19T03:58:33.232Z,6.83
2018-09-19T04:01:02.886Z,7.33
2018-09-19T04:03:32.150Z,8.00
2018-09-19T04:06:01.379Z,4.20
2018-09-19T04:08:31.326Z,7.37
2018-09-19T04:11:00.552Z,6.57
2018-09-19T04:13:36.230Z,4.67
2018-09-19T04:16:05.458Z,3.83
2018-09-19T04:18:34.682Z,5.00
2018-09-19T04:21:03.910Z,4.00
2018-09-19T04:23:33.138Z,7.53
2018-09-19T04:26:02.392Z,5.83
2018-09-19T04:28:31.643Z,4.47
2018-09-19T04:31:00.918Z,6.60
2018-09-19T04:33:30.163Z,6.60
2018-09-19T04:36:00.127Z,4.62
2018-09-19T04:38:29.366Z,6.97
2018-09-19T04:40:58.602Z,7.73
2018-09-19T04:43:27.864Z,5.63
2018-09-19T04:45:57.122Z,6.80
2018-09-19T04:48:26.369Z,6.30
2018-09-19T04:50:55.594Z,6.00
2018-09-19T04:53:24.864Z,6.87
2018-09-19T04:55:54.070Z,3.93
2018-09-19T04:58:23.323Z,6.40
2018-09-19T05:00:52.588Z,6.03
2018-09-19T05:03:21.822Z,9.23
2018-09-19T05:05:51.153Z,4.93
2018-09-19T05:08:20.280Z,5.53
2018-09-19T05:10:49.498Z,5.73
2018-09-19T05:13:18.730Z,4.33
2018-09-19T05:15:48.068Z,8.70
2018-09-19T05:18:17.365Z,12.50
2018-09-19T05:20:46.614Z,3.90
2018-09-19T05:23:15.834Z,8.97
2018-09-19T05:25:45.089Z,7.20
2018-09-19T05:28:14.341Z,5.67
2018-09-19T05:30:43.598Z,4.00
2018-09-19T05:33:12.894Z,4.70
2018-09-19T05:35:42.230Z,3.40
2018-09-19T05:38:11.448Z,6.23
2018-09-19T05:40:40.662Z,9.63
2018-09-19T05:43:09.899Z,4.95
2018-09-19T05:45:39.127Z,6.95
2018-09-19T05:48:08.394Z,5.87
2018-09-19T05:50:37.620Z,4.97
2018-09-19T05:53:06.863Z,6.40
2018-09-19T05:55:36.088Z,3.90
2018-09-19T05:58:05.323Z,6.00
2018-09-19T06:00:34.537Z,7.33
2018-09-19T06:03:03.751Z,3.30
2018-09-19T06:05:32.973Z,4.87
2018-09-19T06:08:02.261Z,5.40
2018-09-19T06:10:31.473Z,4.90
2018-09-19T06:13:00.797Z,2.10
2018-09-19T06:15:29.938Z,5.83
2018-09-19T06:17:59.188Z,5.93
2018-09-19T06:20:28.390Z,4.13
2018-09-19T06:22:57.671Z,2.73
2018-09-19T06:25:26.947Z,4.63
2018-09-19T06:27:56.193Z,5.83
2018-09-19T06:30:25.424Z,4.90
2018-09-19T06:32:54.710Z,3.52
2018-09-19T06:35:23.937Z,4.37
2018-09-19T06:37:53.178Z,3.33
2018-09-19T06:40:22.437Z,7.17
2018-09-19T06:42:51.646Z,4.70
2018-09-19T06:45:20.942Z,4.80
2018-09-19T06:47:50.239Z,7.13
2018-09-19T06:50:19.479Z,5.45
2018-09-19T06:52:48.702Z,4.58
2018-09-19T06:55:17.934Z,3.25
2018-09-19T06:57:47.224Z,3.00
2018-09-19T07:00:16.475Z,4.47
2018-09-19T07:02:45.745Z,3.92
2018-09-19T07:05:14.998Z,4.53
2018-09-19T07:07:44.250Z,6.00
2018-09-19T07:10:13.471Z,4.47
2018-09-19T07:12:42.708Z,5.05
2018-09-19T07:15:11.915Z,4.40
2018-09-19T07:17:41.130Z,5.95
2018-09-19T07:20:10.463Z,11.00
2018-09-19T07:22:39.699Z,5.07
2018-09-19T07:25:08.960Z,5.30
2018-09-19T07:27:38.158Z,5.55
2018-09-19T07:30:07.644Z,4.05
2018-09-19T07:32:36.974Z,4.47
2018-09-19T07:35:06.326Z,8.13
2018-09-19T07:37:35.563Z,3.98
2018-09-19T07:40:04.800Z,6.75
2018-09-19T07:42:34.158Z,4.30
2018-09-19T07:45:03.438Z,3.67
2018-09-19T07:47:32.650Z,5.53
2018-09-19T07:50:01.878Z,5.95
2018-09-19T07:52:31.107Z,8.20
2018-09-19T07:55:00.333Z,5.30
2018-09-19T07:57:29.554Z,3.85
2018-09-19T07:59:58.796Z,5.40
2018-09-19T08:02:28.023Z,3.22
2018-09-19T08:04:57.292Z,3.52
2018-09-19T08:07:26.506Z,6.80
2018-09-19T08:09:55.748Z,4.03
2018-09-19T08:12:24.949Z,3.25
2018-09-19T08:14:54.188Z,2.80
2018-09-19T08:17:23.406Z,4.78
2018-09-19T08:19:52.902Z,3.90
2018-09-19T08:22:22.112Z,4.80
2018-09-19T08:24:51.415Z,3.92
2018-09-19T08:27:20.692Z,3.85
2018-09-19T08:29:49.990Z,5.17
2018-09-19T08:32:19.316Z,3.37
2018-09-19T08:34:48.536Z,2.83
2018-09-19T08:37:17.842Z,5.37
2018-09-19T08:39:47.067Z,4.55
2018-09-19T08:42:16.308Z,4.40
2018-09-19T08:44:45.551Z,5.43
2018-09-19T08:47:14.766Z,3.00
2018-09-19T08:49:44.022Z,4.33
2018-09-19T08:52:13.264Z,3.60
2018-09-19T08:54:42.509Z,3.83
2018-09-19T08:57:11.791Z,4.23
2018-09-19T08:59:40.991Z,3.93
2018-09-19T09:02:10.235Z,4.03
2018-09-19T09:04:39.455Z,5.08
2018-09-19T09:07:08.683Z,4.80
2018-09-19T09:09:37.947Z,3.45
2018-09-19T09:12:07.236Z,3.53
2018-09-19T09:14:36.442Z,4.08
2018-09-19T09:17:05.819Z,5.22
2018-09-19T09:19:35.093Z,3.77
2018-09-19T09:22:04.333Z,5.10
2018-09-19T09:24:33.573Z,5.30
2018-09-19T09:27:03.634Z,5.15
2018-09-19T09:29:32.748Z,3.92
2018-09-19T09:32:02.047Z,3.97
2018-09-19T09:34:31.323Z,7.63
2018-09-19T09:37:00.551Z,3.65
2018-09-19T09:39:30.015Z,3.85
2018-09-19T09:41:59.250Z,3.58
2018-09-19T09:44:28.454Z,5.17
2018-09-19T09:46:57.684Z,3.80
2018-09-19T09:49:26.914Z,4.60
2018-09-19T09:51:56.142Z,3.75
2018-09-19T09:54:25.378Z,3.90
2018-09-19T09:56:54.586Z,5.30
2018-09-19T09:59:23.829Z,4.28
2018-09-19T10:01:53.042Z,4.10
2018-09-19T10:04:22.393Z,4.00
2018-09-19T10:06:51.738Z,5.83
2018-09-19T10:09:20.943Z,4.20
2018-09-19T10:11:50.186Z,4.80
2018-09-19T10:14:19.449Z,6.10
2018-09-19T10:16:48.687Z,4.30
2018-09-19T10:19:17.987Z,4.27
2018-09-19T10:21:47.206Z,3.87
2018-09-19T10:24:16.440Z,4.80
2018-09-19T10:26:45.654Z,5.55
2018-09-19T10:29:14.910Z,4.10
2018-09-19T10:31:44.130Z,5.58
2018-09-19T10:34:13.518Z,4.30
2018-09-19T10:36:42.743Z,5.28
2018-09-19T10:39:11.944Z,6.07
2018-09-19T10:41:41.212Z,4.58
2018-09-19T10:44:10.439Z,4.63
2018-09-19T10:46:39.666Z,7.70
2018-09-19T10:49:08.942Z,5.17
2018-09-19T10:51:38.186Z,4.20
2018-09-19T10:54:07.418Z,4.10
2018-09-19T10:56:36.643Z,3.83
2018-09-19T10:59:05.857Z,4.30
2018-09-19T11:01:35.199Z,4.45
2018-09-19T11:04:04.420Z,5.08
2018-09-19T11:06:33.637Z,4.35
2018-09-19T11:09:03.707Z,6.33
2018-09-19T11:11:32.938Z,4.17
2018-09-19T11:14:02.177Z,4.10
2018-09-19T11:16:31.399Z,6.00
2018-09-19T11:19:00.652Z,5.87
2018-09-19T11:21:30.064Z,25.90
2018-09-19T11:23:59.279Z,7.53
2018-09-19T11:26:29.774Z,8.35
2018-09-19T11:28:58.975Z,15.80
2018-09-19T11:31:28.210Z,11.38
2018-09-19T11:33:57.437Z,4.03
2018-09-19T11:36:26.698Z,4.15
2018-09-19T11:38:55.923Z,17.07
2018-09-19T11:41:25.151Z,20.55
2018-09-19T11:43:54.402Z,5.53
2018-09-19T11:46:23.653Z,5.63
2018-09-19T11:48:52.896Z,3.47
2018-09-19T11:51:22.154Z,4.25
2018-09-19T11:53:51.383Z,4.72
2018-09-19T11:56:20.641Z,4.50
2018-09-19T11:58:49.859Z,7.83
2018-09-19T12:01:19.118Z,4.73
2018-09-19T12:03:48.366Z,7.10
2018-09-19T12:06:17.586Z,3.90
2018-09-19T12:08:46.845Z,3.90
2018-09-19T12:11:16.020Z,4.77
2018-09-19T12:13:45.247Z,3.75
2018-09-19T12:16:14.751Z,8.83
2018-09-19T12:18:43.995Z,4.42
2018-09-19T12:21:13.211Z,4.93
2018-09-19T12:23:42.438Z,6.10
2018-09-19T12:26:11.692Z,5.75
2018-09-19T12:28:40.906Z,4.50
2018-09-19T12:31:10.131Z,4.30
2018-09-19T12:33:39.354Z,4.90
2018-09-19T12:36:08.583Z,3.90
2018-09-19T12:38:39.028Z,4.00
2018-09-19T12:41:08.275Z,4.82
2018-09-19T12:43:37.635Z,3.63
2018-09-19T12:46:06.877Z,5.23
2018-09-19T12:48:36.114Z,3.92
2018-09-19T12:51:05.367Z,4.40
2018-09-19T12:53:34.611Z,4.55
2018-09-19T12:56:03.848Z,4.50
2018-09-19T12:58:33.133Z,3.63
2018-09-19T13:01:03.743Z,3.87
2018-09-19T13:03:34.203Z,3.92
2018-09-19T13:06:03.443Z,4.97
2018-09-19T13:08:32.711Z,4.67
2018-09-19T13:11:02.108Z,4.53
2018-09-19T13:13:31.331Z,4.28
2018-09-19T13:16:00.574Z,3.93
2018-09-19T13:18:29.838Z,5.78
2018-09-19T13:20:59.074Z,4.33
2018-09-19T13:23:28.318Z,5.53
2018-09-19T13:25:57.572Z,3.60
2018-09-19T13:28:26.837Z,4.65
2018-09-19T13:30:56.074Z,4.15
2018-09-19T13:33:25.319Z,3.92
2018-09-19T13:35:54.558Z,6.93
2018-09-19T13:38:23.781Z,4.42
2018-09-19T13:40:53.050Z,4.30
2018-09-19T13:43:22.267Z,3.70
2018-09-19T13:45:51.506Z,5.73
2018-09-19T13:48:20.741Z,4.97
2018-09-19T13:51:23.299Z,5.18
2018-09-19T13:53:52.554Z,5.17
2018-09-19T13:56:22.078Z,4.30
2018-09-19T13:58:51.353Z,3.60
2018-09-19T14:01:20.543Z,5.37
2018-09-19T14:03:49.822Z,5.85
2018-09-19T14:06:19.033Z,4.62
2018-09-19T14:08:48.274Z,4.60
2018-09-19T14:11:17.532Z,4.77
2018-09-19T14:13:46.760Z,4.08
2018-09-19T14:16:15.967Z,4.45
2018-09-19T14:18:45.281Z,3.60
2018-09-19T14:21:14.515Z,3.80
2018-09-19T14:24:14.391Z,6.57
2018-09-19T14:26:43.622Z,4.42
2018-09-19T14:29:12.843Z,4.57
2018-09-19T14:31:42.084Z,5.03
2018-09-19T14:34:11.313Z,4.23
2018-09-19T14:36:40.542Z,4.20
2018-09-19T14:39:09.802Z,4.25
2018-09-19T14:41:39.037Z,4.28
2018-09-19T14:44:08.258Z,4.50
2018-09-19T14:46:37.682Z,4.47
2018-09-19T14:49:07.474Z,6.20
2018-09-19T14:51:36.798Z,4.72
2018-09-19T14:54:07.240Z,4.55
2018-09-19T14:56:36.410Z,5.90
2018-09-19T14:59:05.689Z,5.10
2018-09-19T15:01:34.923Z,5.28
2018-09-19T15:04:05.530Z,4.17
2018-09-19T15:06:34.747Z,5.20
2018-09-19T15:09:04.731Z,5.53
2018-09-19T15:11:33.958Z,9.43
2018-09-19T15:14:03.183Z,4.80
2018-09-19T15:21:30.168Z,5.08
2018-09-19T15:23:59.368Z,4.73
2018-09-19T15:26:29.750Z,4.70
2018-09-19T15:28:58.966Z,4.53
2018-09-19T15:31:28.286Z,4.75
2018-09-19T15:33:57.547Z,9.43
2018-09-19T15:36:26.811Z,4.40
2018-09-19T15:38:56.112Z,6.30
2018-09-19T15:41:25.358Z,5.75
2018-09-19T15:43:54.655Z,4.70
2018-09-19T15:46:23.971Z,7.57
2018-09-19T15:48:53.214Z,7.03
2018-09-19T15:51:22.451Z,5.20
2018-09-19T15:53:51.774Z,5.92
2018-09-19T15:56:20.994Z,5.35
2018-09-19T15:58:50.222Z,7.27
2018-09-19T16:01:19.554Z,9.13
2018-09-19T16:03:48.779Z,6.22
2018-09-19T16:06:18.045Z,7.17
2018-09-19T16:08:47.262Z,6.37
2018-09-19T16:11:16.525Z,5.30
2018-09-19T16:13:45.795Z,6.35
2018-09-19T16:16:15.046Z,6.12
2018-09-19T16:18:44.306Z,9.75
2018-09-19T16:21:13.535Z,6.53
2018-09-19T16:23:43.016Z,6.53
2018-09-19T16:26:12.481Z,7.92
2018-09-19T16:28:41.719Z,7.17
2018-09-19T16:31:11.402Z,5.95
2018-09-19T16:33:40.623Z,5.40
2018-09-19T16:36:09.856Z,6.16
2018-09-19T16:38:39.086Z,6.67
2018-09-19T16:41:08.323Z,9.35
2018-09-19T16:43:37.596Z,6.67
2018-09-19T16:48:34.762Z,6.25
2018-09-19T16:51:04.120Z,9.15
2018-09-19T16:53:33.461Z,6.65
2018-09-19T16:56:02.689Z,6.17
2018-09-19T16:58:31.926Z,7.67
2018-09-19T17:01:01.151Z,7.90
2018-09-19T17:03:30.357Z,10.48
2018-09-19T17:05:59.598Z,6.57
2018-09-19T17:08:28.834Z,6.10
2018-09-19T17:10:58.074Z,8.07
2018-09-19T17:13:27.306Z,5.78
2018-09-19T17:15:56.538Z,7.58
2018-09-19T17:18:26.016Z,8.10
2018-09-19T17:20:55.239Z,14.07
2018-09-19T17:23:24.478Z,8.43
2018-09-19T17:25:53.769Z,9.93
2018-09-19T17:28:22.966Z,9.08
2018-09-19T17:30:52.214Z,9.30
2018-09-19T17:33:21.500Z,6.83
2018-09-19T17:35:50.680Z,6.87
2018-09-19T17:38:19.971Z,7.67
2018-09-19T17:40:49.338Z,9.70
2018-09-19T17:43:18.574Z,8.97
2018-09-19T17:45:47.999Z,7.73
2018-09-19T17:48:17.422Z,8.85
2018-09-19T17:50:46.637Z,9.08
2018-09-19T17:53:15.868Z,8.48
2018-09-19T17:55:45.106Z,10.07
2018-09-19T17:58:14.393Z,11.93
2018-09-19T18:00:43.652Z,10.00
2018-09-19T18:03:12.954Z,11.03
2018-09-19T18:05:42.257Z,9.38
2018-09-19T18:08:11.513Z,9.47
2018-09-19T18:10:40.715Z,10.70
2018-09-19T18:13:09.994Z,12.23
2018-09-19T18:15:39.231Z,7.83
2018-09-19T18:18:08.480Z,7.97
2018-09-19T18:20:37.738Z,9.77
2018-09-19T18:23:07.000Z,11.75
2018-09-19T18:25:36.368Z,10.03
2018-09-19T18:28:05.626Z,9.40
2018-09-19T18:30:34.862Z,10.83
2018-09-19T18:33:04.732Z,11.80
2018-09-19T18:35:34.014Z,9.63
2018-09-19T18:38:03.278Z,9.40
2018-09-19T18:40:32.524Z,11.30
2018-09-19T18:43:01.738Z,10.73
2018-09-19T18:45:31.163Z,9.80
2018-09-19T18:48:00.806Z,7.83
2018-09-19T18:50:31.291Z,10.47
2018-09-19T18:53:00.559Z,10.07
2018-09-19T18:55:29.863Z,8.43
2018-09-19T18:57:59.099Z,10.43
2018-09-19T19:00:28.326Z,11.33
2018-09-19T19:02:57.592Z,9.53
2018-09-19T19:05:26.851Z,13.50
2018-09-19T19:07:56.155Z,13.17
2018-09-19T19:10:25.331Z,8.37
2018-09-19T19:12:54.538Z,9.47
2018-09-19T19:15:23.790Z,20.47
2018-09-19T19:17:53.022Z,8.93
2018-09-19T19:20:22.252Z,12.13
2018-09-19T19:22:51.475Z,11.70
2018-09-19T19:25:20.715Z,11.47
2018-09-19T19:27:49.943Z,9.20
2018-09-19T19:30:19.481Z,8.77
2018-09-19T19:32:48.695Z,13.67
2018-09-19T19:35:17.928Z,12.03
2018-09-19T19:37:47.276Z,10.87
2018-09-19T19:40:16.419Z,8.87
2018-09-19T19:42:45.646Z,14.93
2018-09-19T19:45:15.039Z,12.43
2018-09-19T19:47:44.261Z,14.80
2018-09-19T19:50:14.619Z,9.03
2018-09-19T19:52:43.894Z,12.60
2018-09-19T19:55:13.114Z,13.83
2018-09-19T19:57:42.392Z,13.07
2018-09-19T20:00:11.595Z,10.53
2018-09-19T20:02:40.982Z,14.93
2018-09-19T20:05:10.202Z,13.80
2018-09-19T20:07:39.451Z,11.28
2018-09-19T20:10:08.690Z,10.83
2018-09-19T20:12:38.140Z,10.00
2018-09-19T20:15:07.356Z,10.83
2018-09-19T20:17:36.595Z,14.67
2018-09-19T20:20:05.882Z,13.07
2018-09-19T20:22:35.122Z,12.45
2018-09-19T20:25:04.538Z,10.50
2018-09-19T20:27:33.811Z,11.23
2018-09-19T20:30:03.035Z,11.13
2018-09-19T20:32:32.283Z,10.50
2018-09-19T20:35:01.504Z,10.80
2018-09-19T20:37:30.754Z,9.63
2018-09-19T20:40:00.139Z,9.83
2018-09-19T20:42:29.355Z,10.97
2018-09-19T20:44:58.602Z,12.50
2018-09-19T20:47:27.847Z,10.83
2018-09-19T20:49:57.063Z,9.37
2018-09-19T20:52:26.287Z,11.63
2018-09-19T20:54:55.702Z,9.43
2018-09-19T20:57:25.038Z,8.33
2018-09-19T20:59:54.309Z,11.43
2018-09-19T21:02:23.544Z,10.70
2018-09-19T21:04:52.779Z,13.93
2018-09-19T21:07:22.023Z,9.57
2018-09-19T21:09:51.266Z,11.23
2018-09-19T21:12:20.515Z,11.90
2018-09-19T21:14:49.810Z,14.37
2018-09-19T21:17:19.034Z,13.20
2018-09-19T21:19:48.414Z,12.80
2018-09-19T21:22:17.790Z,10.47
2018-09-19T21:24:46.881Z,9.27
2018-09-19T21:27:16.226Z,8.48
2018-09-19T21:29:45.469Z,8.83
2018-09-19T21:32:14.727Z,9.30
2018-09-19T21:34:43.939Z,10.00
2018-09-19T21:37:13.178Z,13.05
2018-09-19T21:39:42.404Z,10.80
2018-09-19T21:42:11.642Z,8.98
2018-09-19T21:44:40.861Z,11.23
2018-09-19T21:47:10.095Z,11.73
2018-09-19T21:49:39.339Z,10.90
2018-09-19T21:52:08.567Z,9.67
2018-09-19T21:54:37.822Z,9.80
2018-09-19T21:57:07.151Z,13.93
2018-09-19T21:59:36.936Z,12.73
2018-09-19T22:02:06.210Z,15.23
2018-09-19T22:04:35.455Z,12.85
2018-09-19T22:07:04.699Z,9.43
2018-09-19T22:09:33.947Z,10.50
2018-09-19T22:12:03.162Z,8.70
2018-09-19T22:14:32.395Z,10.83
2018-09-19T22:17:01.651Z,10.03
2018-09-19T22:19:30.887Z,12.13
2018-09-19T22:22:00.119Z,13.77
2018-09-19T22:24:29.350Z,10.80
2018-09-19T22:26:58.583Z,11.97
2018-09-19T22:29:27.837Z,13.62
2018-09-19T22:31:57.089Z,11.77
2018-09-19T22:34:26.357Z,11.37
2018-09-19T22:36:55.629Z,14.47
2018-09-19T22:39:24.855Z,11.83
2018-09-19T22:41:54.082Z,13.63
2018-09-19T22:44:23.302Z,10.43
2018-09-19T22:46:52.778Z,8.73
2018-09-19T22:49:22.018Z,12.80
2018-09-19T22:51:51.283Z,12.47
2018-09-19T22:54:20.618Z,12.67
2018-09-19T22:56:49.859Z,14.10
2018-09-19T22:59:19.078Z,14.87
2018-09-19T23:01:48.324Z,11.67
2018-09-19T23:04:17.558Z,9.27
2018-09-19T23:06:46.809Z,10.48
2018-09-19T23:09:16.038Z,12.30
2018-09-19T23:11:46.519Z,10.23
2018-09-19T23:14:15.779Z,15.67
2018-09-19T23:16:45.018Z,12.50
2018-09-19T23:19:14.279Z,13.25
2018-09-19T23:21:43.491Z,17.63
2018-09-19T23:24:13.346Z,11.40
2018-09-19T23:26:42.575Z,13.60
2018-09-19T23:29:11.804Z,10.20
2018-09-19T23:31:41.026Z,10.72
2018-09-19T23:34:10.254Z,9.50
2018-09-19T23:36:39.484Z,11.73
2018-09-19T23:39:10.386Z,8.78
2018-09-19T23:41:39.615Z,10.30
2018-09-19T23:44:08.885Z,10.97
2018-09-19T23:46:38.111Z,7.12
2018-09-19T23:49:07.613Z,13.93
2018-09-19T23:51:36.874Z,8.53
2018-09-19T23:54:06.223Z,8.67
2018-09-19T23:56:35.439Z,10.47
2018-09-19T23:59:04.675Z,8.47
